• Join FlightAware (Why Join?)
  • Login
  • US Flag 
04:35AM EDT


 

Airport Tracker/Info


-or-


 

Live Flight TrackerFlight Track Log ✈ ASH3770 ✈ 14-May-2013 ✈ KIAD - KPIT

Flight Track Log - Related Links

Times and Time Zones

All times are in EDT time to prevent confusion due to time zone crossing. See the ASH3770 flight status page for this flight to view local times or setup timezone preferences in your user account.

Time Position Orientation Groundspeed Altitude Reporting Facility
EDT Latitude Longitude Course Direction KTS MPH feet Rate Location/Type
05:05PM 38.9667 -77.4333 North 173 199 1,000  Level Potomac TRACON
05:07PM 39.0792 -77.5222 328° Northwest 232 267 6,600 2,760 Climbing Washington Center
05:08PM 39.2704 -77.5347 344° North  Level FlightAware Approximate
05:08PM 39.1411 -77.5639 332° Northwest 243 280 10,200  Level Washington Center
05:09PM 39.3555 -77.5666 344° North  Level FlightAware Approximate
05:09PM 39.2092 -77.6139 330° Northwest 259 298 10,800  Level Washington Center
05:10PM 39.4422 -77.5833 North  Level FlightAware Approximate
05:10PM 39.2853 -77.6725 329° Northwest 295 339 13,600  Level Washington Center
05:11PM 39.3614 -77.7308 329° Northwest 314 361 15,800 1,740 Climbing Washington Center
05:12PM 39.4414 -77.7897 330° Northwest 319 367 17,200 1,620 Climbing Washington Center
05:13PM 39.5217 -77.8486 331° Northwest 319 367 19,100 900 Climbing Washington Center
05:15PM 39.6058 -78.0719 296° West 381 438 20,000 300 Climbing Cleveland Center
05:16PM 39.6419 -78.2000 290° West 375 432 20,000  Level Cleveland Center
05:17PM 39.6800 -78.3253 292° West 375 432 20,000  Level Cleveland Center
05:18PM 39.7158 -78.4511 290° West 370 426 20,000  Level Cleveland Center
05:19PM 39.7533 -78.5767 291° West 370 426 20,000  Level Cleveland Center
05:20PM 39.7892 -78.7161 289° West 370 426 20,000  Level Cleveland Center
05:21PM 39.8267 -78.8422 291° West 370 426 20,000  Level Cleveland Center
05:22PM 39.8722 -78.9600 297° West 370 426 20,000  Level Cleveland Center
05:23PM 39.9258 -79.0778 301° West 375 432 20,000  Level Cleveland Center
05:24PM 39.9753 -79.1906 300° West 375 432 20,000 -60 Level Cleveland Center
05:25PM 40.0225 -79.3033 299° West 369 425 19,900 -1,320 Descending Cleveland Center
05:26PM 40.0631 -79.4003 299° West 345 397 17,400 -2,520 Descending Cleveland Center
05:27PM 40.1058 -79.4972 300° West 317 365 14,900 -2,520 Descending Cleveland Center
05:28PM 40.1442 -79.5892 299° West 301 346 12,400 -2,400 Descending Cleveland Center
05:29PM 40.1825 -79.6781 299° West 290 334 10,100 -1,200 Descending Cleveland Center
05:30PM 40.2122 -79.7594 296° West 270 311 10,000 -60 Descending Cleveland Center
05:31PM 40.2419 -79.8378 296° West 251 289 10,000 -540 Level Cleveland Center
05:32PM 40.2758 -79.9164 299° West 245 282 9,000 -1,380 Descending Cleveland Center
05:33PM 40.3094 -79.9922 300° West 240 276 7,300 -1,500 Descending Cleveland Center
05:34PM 40.3475 -80.0683 303° West 240 276 6,000 -660 Descending Cleveland Center
05:35PM 40.3831 -80.1442 302° West 250 288 6,000 -60 Level Cleveland Center
05:36PM 40.4064 -80.2258 291° West 245 282 5,900 -120 Descending Cleveland Center
05:38PM 40.4833 -80.2167 303° West  Level FlightAware Approximate